Main page
METAR-TAF:

METAR-TAF

Airports :

Ashgabat, Turkmenistan

Ashgabat International Airport

latitude: 37-59N, longitude: 058-22E, elevation: m

Current weather observation

The report was made 41 minutes ago, at 03:00 UTC
Wind 11 kt from the East/Southeast
Temperature 13°C
Humidity 38%
Pressure 1025 hPa
Visibility 10 km or more
Few clouds at a height of 10000 ft

METAR: UTAA 290300Z 12011KT 9999 FEW100 13/M01 Q1025 R88/CLRD70 NOSIG

Time: 08:41 (03:41 UTC)

Forecast

The report was made 5 hours and 11 minutes ago, at 22:30 UTC
Forecast valid from 29 at 00 UTC to 29 at 24 UTC
Wind 16 kt from the East
Visibility: 5000 m
Scattered clouds at a height of 5000 ft
Temporary
from 29 at 00 UTC to 29 at 04 UTC
Wind 12 kt from the South/Southeast
Visibility: 3000 m
haze
Temporary
from 29 at 04 UTC to 29 at 15 UTC
Wind 18 kt from the East/Southeast with gusts up to 28 kt
Visibility: 3000 m
Blowing dust

TAF: UTAA 282230Z 2900/2924 10016KT 5000 SCT050 530009 TEMPO 2900/2904 16012KT 3000 HZ TEMPO 2904/2915 12018G28KT 3000 BLDU

Weather observations and forecasts of more than 4000 airports (METAR and TAF reports).

The available stations are represented by yellow and red dots on the map.

Hover mouse over dot to see the name of the station.

Then click to see weather observations and forecasts.

To change the map : click on the green buttons with a black cross to zoom in, on the green button with a dash to zoom out, or on the green arrows for adjacent maps.


METAR-TAF: